sensor_id;sensor_type;location;lat;lon;timestamp;P1;durP1;ratioP1;P2;durP2;ratioP2
2998;SDS011;1509;51.964;7.628;2023-05-01T00:00:58;10.37;;;3.40;;
2998;SDS011;1509;51.964;7.628;2023-05-01T00:03:24;7.27;;;3.87;;
2998;SDS011;1509;51.964;7.628;2023-05-01T00:05:50;8.87;;;5.20;;
2998;SDS011;1509;51.964;7.628;2023-05-01T00:08:16;6.83;;;4.03;;
2998;SDS011;1509;51.964;7.628;2023-05-01T00:10:41;8.10;;;4.17;;
2998;SDS011;1509;51.964;7.628;2023-05-01T00:13:07;7.60;;;4.37;;
2998;SDS011;1509;51.964;7.628;2023-05-01T00:15:34;7.20;;;4.40;;
2998;SDS011;1509;51.964;7.628;2023-05-01T00:18:00;5.93;;;3.60;;
2998;SDS011;1509;51.964;7.628;2023-05-01T00:20:26;7.60;;;4.10;;
2998;SDS011;1509;51.964;7.628;2023-05-01T00:22:52;6.07;;;3.67;;
2998;SDS011;1509;51.964;7.628;2023-05-01T00:25:18;8.57;;;4.10;;
2998;SDS011;1509;51.964;7.628;2023-05-01T00:27:43;6.17;;;4.57;;
2998;SDS011;1509;51.964;7.628;2023-05-01T00:30:32;7.50;;;3.80;;
2998;SDS011;1509;51.964;7.628;2023-05-01T00:32:58;7.50;;;3.83;;
2998;SDS011;1509;51.964;7.628;2023-05-01T00:35:24;6.00;;;3.70;;
2998;SDS011;1509;51.964;7.628;2023-05-01T00:37:50;6.93;;;3.23;;
2998;SDS011;1509;51.964;7.628;2023-05-01T00:40:15;7.60;;;3.70;;
2998;SDS011;1509;51.964;7.628;2023-05-01T00:42:41;10.33;;;4.87;;
2998;SDS011;1509;51.964;7.628;2023-05-01T00:45:07;4.63;;;3.30;;
2998;SDS011;1509;51.964;7.628;2023-05-01T00:47:36;6.27;;;3.70;;
2998;SDS011;1509;51.964;7.628;2023-05-01T00:50:02;6.60;;;3.80;;
2998;SDS011;1509;51.964;7.628;2023-05-01T00:52:29;7.70;;;4.20;;
2998;SDS011;1509;51.964;7.628;2023-05-01T00:54:55;7.70;;;4.00;;
2998;SDS011;1509;51.964;7.628;2023-05-01T00:57:21;6.40;;;4.30;;
2998;SDS011;1509;51.964;7.628;2023-05-01T00:59:48;8.07;;;3.87;;
2998;SDS011;1509;51.964;7.628;2023-05-01T01:02:14;7.33;;;4.03;;
2998;SDS011;1509;51.964;7.628;2023-05-01T01:04:40;7.90;;;4.67;;
2998;SDS011;1509;51.964;7.628;2023-05-01T01:07:11;6.63;;;3.97;;
2998;SDS011;1509;51.964;7.628;2023-05-01T01:15:23;7.10;;;5.97;;
2998;SDS011;1509;51.964;7.628;2023-05-01T01:18:39;8.47;;;4.00;;
2998;SDS011;1509;51.964;7.628;2023-05-01T01:21:31;6.13;;;3.90;;
2998;SDS011;1509;51.964;7.628;2023-05-01T01:33:16;5.00;;;3.47;;
2998;SDS011;1509;51.964;7.628;2023-05-01T01:36:14;6.43;;;3.80;;
2998;SDS011;1509;51.964;7.628;2023-05-01T01:38:50;8.57;;;4.00;;
2998;SDS011;1509;51.964;7.628;2023-05-01T01:41:30;6.90;;;3.40;;
2998;SDS011;1509;51.964;7.628;2023-05-01T01:44:00;6.27;;;4.10;;
2998;SDS011;1509;51.964;7.628;2023-05-01T01:46:30;8.50;;;3.77;;
2998;SDS011;1509;51.964;7.628;2023-05-01T01:49:01;6.40;;;3.73;;
2998;SDS011;1509;51.964;7.628;2023-05-01T01:51:33;6.27;;;4.37;;
2998;SDS011;1509;51.964;7.628;2023-05-01T01:54:01;12.03;;;4.60;;
2998;SDS011;1509;51.964;7.628;2023-05-01T01:56:28;4.23;;;3.13;;
2998;SDS011;1509;51.964;7.628;2023-05-01T01:58:57;5.40;;;3.40;;
2998;SDS011;1509;51.964;7.628;2023-05-01T02:01:25;5.30;;;3.50;;
2998;SDS011;1509;51.964;7.628;2023-05-01T02:03:52;4.93;;;4.00;;
2998;SDS011;1509;51.964;7.628;2023-05-01T02:06:19;7.53;;;3.73;;
2998;SDS011;1509;51.964;7.628;2023-05-01T02:08:46;5.87;;;3.57;;
2998;SDS011;1509;51.964;7.628;2023-05-01T02:11:14;6.70;;;3.83;;
2998;SDS011;1509;51.964;7.628;2023-05-01T02:13:44;6.00;;;3.83;;
2998;SDS011;1509;51.964;7.628;2023-05-01T02:16:12;15.10;;;4.73;;
2998;SDS011;1509;51.964;7.628;2023-05-01T02:18:40;6.40;;;4.03;;
2998;SDS011;1509;51.964;7.628;2023-05-01T02:21:07;10.93;;;4.33;;
2998;SDS011;1509;51.964;7.628;2023-05-01T02:23:35;4.70;;;3.57;;
2998;SDS011;1509;51.964;7.628;2023-05-01T02:26:02;9.40;;;4.50;;
2998;SDS011;1509;51.964;7.628;2023-05-01T02:28:28;8.93;;;4.23;;
2998;SDS011;1509;51.964;7.628;2023-05-01T02:30:54;4.60;;;3.90;;
2998;SDS011;1509;51.964;7.628;2023-05-01T02:33:21;10.23;;;4.50;;
2998;SDS011;1509;51.964;7.628;2023-05-01T02:35:47;9.57;;;3.80;;
2998;SDS011;1509;51.964;7.628;2023-05-01T02:38:13;6.90;;;4.43;;
2998;SDS011;1509;51.964;7.628;2023-05-01T02:40:40;5.97;;;4.30;;
2998;SDS011;1509;51.964;7.628;2023-05-01T02:43:11;8.50;;;4.20;;
2998;SDS011;1509;51.964;7.628;2023-05-01T02:45:40;11.50;;;4.10;;
2998;SDS011;1509;51.964;7.628;2023-05-01T02:48:08;6.10;;;3.60;;
2998;SDS011;1509;51.964;7.628;2023-05-01T02:50:37;6.47;;;3.90;;
2998;SDS011;1509;51.964;7.628;2023-05-01T02:53:07;5.70;;;3.90;;
2998;SDS011;1509;51.964;7.628;2023-05-01T02:55:34;10.60;;;3.90;;
2998;SDS011;1509;51.964;7.628;2023-05-01T02:58:00;10.17;;;4.17;;
2998;SDS011;1509;51.964;7.628;2023-05-01T03:00:26;7.73;;;4.57;;
2998;SDS011;1509;51.964;7.628;2023-05-01T03:02:52;8.80;;;4.53;;
2998;SDS011;1509;51.964;7.628;2023-05-01T03:05:18;6.27;;;4.40;;
2998;SDS011;1509;51.964;7.628;2023-05-01T03:07:44;7.43;;;4.60;;
2998;SDS011;1509;51.964;7.628;2023-05-01T03:10:11;7.30;;;3.87;;
2998;SDS011;1509;51.964;7.628;2023-05-01T03:12:37;7.10;;;4.00;;
2998;SDS011;1509;51.964;7.628;2023-05-01T03:15:03;9.57;;;4.27;;
2998;SDS011;1509;51.964;7.628;2023-05-01T03:17:29;6.27;;;3.80;;
2998;SDS011;1509;51.964;7.628;2023-05-01T03:19:55;8.93;;;3.80;;
2998;SDS011;1509;51.964;7.628;2023-05-01T03:22:21;9.40;;;4.87;;
2998;SDS011;1509;51.964;7.628;2023-05-01T03:24:47;9.03;;;3.90;;
2998;SDS011;1509;51.964;7.628;2023-05-01T03:27:13;5.97;;;4.03;;
2998;SDS011;1509;51.964;7.628;2023-05-01T03:29:42;6.67;;;3.93;;
2998;SDS011;1509;51.964;7.628;2023-05-01T03:32:08;6.20;;;4.00;;
2998;SDS011;1509;51.964;7.628;2023-05-01T03:34:33;8.20;;;3.77;;
2998;SDS011;1509;51.964;7.628;2023-05-01T03:36:59;7.20;;;3.80;;
2998;SDS011;1509;51.964;7.628;2023-05-01T03:39:24;5.40;;;4.37;;
2998;SDS011;1509;51.964;7.628;2023-05-01T03:41:50;5.47;;;4.27;;
2998;SDS011;1509;51.964;7.628;2023-05-01T03:44:15;9.20;;;4.30;;
2998;SDS011;1509;51.964;7.628;2023-05-01T03:46:41;10.70;;;4.50;;
2998;SDS011;1509;51.964;7.628;2023-05-01T03:49:08;6.70;;;4.30;;
2998;SDS011;1509;51.964;7.628;2023-05-01T03:51:33;13.27;;;4.57;;
2998;SDS011;1509;51.964;7.628;2023-05-01T03:53:59;8.13;;;4.43;;
2998;SDS011;1509;51.964;7.628;2023-05-01T03:56:25;9.97;;;4.47;;
2998;SDS011;1509;51.964;7.628;2023-05-01T03:58:51;10.43;;;4.17;;
2998;SDS011;1509;51.964;7.628;2023-05-01T04:01:17;7.20;;;3.87;;
2998;SDS011;1509;51.964;7.628;2023-05-01T04:03:43;8.60;;;4.53;;
2998;SDS011;1509;51.964;7.628;2023-05-01T04:06:10;8.90;;;4.90;;
2998;SDS011;1509;51.964;7.628;2023-05-01T04:08:36;5.33;;;4.20;;
2998;SDS011;1509;51.964;7.628;2023-05-01T04:11:02;7.50;;;3.90;;
2998;SDS011;1509;51.964;7.628;2023-05-01T04:13:27;8.47;;;4.40;;
2998;SDS011;1509;51.964;7.628;2023-05-01T04:15:53;6.37;;;4.00;;
2998;SDS011;1509;51.964;7.628;2023-05-01T04:18:21;8.50;;;3.83;;
2998;SDS011;1509;51.964;7.628;2023-05-01T04:20:47;4.90;;;3.47;;
2998;SDS011;1509;51.964;7.628;2023-05-01T04:23:12;7.70;;;4.83;;
2998;SDS011;1509;51.964;7.628;2023-05-01T04:25:38;9.27;;;3.97;;
2998;SDS011;1509;51.964;7.628;2023-05-01T04:28:04;7.20;;;3.93;;
2998;SDS011;1509;51.964;7.628;2023-05-01T04:30:30;9.70;;;4.30;;
2998;SDS011;1509;51.964;7.628;2023-05-01T04:32:56;7.10;;;4.10;;
2998;SDS011;1509;51.964;7.628;2023-05-01T04:35:22;11.93;;;4.00;;
2998;SDS011;1509;51.964;7.628;2023-05-01T04:37:49;6.73;;;4.17;;
2998;SDS011;1509;51.964;7.628;2023-05-01T04:40:15;6.17;;;4.43;;
2998;SDS011;1509;51.964;7.628;2023-05-01T04:42:41;5.90;;;3.83;;
2998;SDS011;1509;51.964;7.628;2023-05-01T04:45:07;6.60;;;3.60;;
2998;SDS011;1509;51.964;7.628;2023-05-01T04:47:33;7.30;;;4.33;;
2998;SDS011;1509;51.964;7.628;2023-05-01T04:49:59;5.80;;;3.57;;
2998;SDS011;1509;51.964;7.628;2023-05-01T04:52:25;6.43;;;3.93;;
2998;SDS011;1509;51.964;7.628;2023-05-01T04:54:50;6.90;;;4.43;;
2998;SDS011;1509;51.964;7.628;2023-05-01T04:57:16;7.50;;;4.33;;
2998;SDS011;1509;51.964;7.628;2023-05-01T04:59:42;6.40;;;4.00;;
2998;SDS011;1509;51.964;7.628;2023-05-01T05:02:08;9.07;;;4.53;;
2998;SDS011;1509;51.964;7.628;2023-05-01T05:04:34;8.30;;;4.40;;
2998;SDS011;1509;51.964;7.628;2023-05-01T05:06:59;11.57;;;4.37;;
2998;SDS011;1509;51.964;7.628;2023-05-01T05:09:25;6.43;;;3.97;;
2998;SDS011;1509;51.964;7.628;2023-05-01T05:11:50;8.60;;;4.57;;
2998;SDS011;1509;51.964;7.628;2023-05-01T05:14:16;7.07;;;4.80;;
2998;SDS011;1509;51.964;7.628;2023-05-01T05:16:42;8.53;;;4.03;;
2998;SDS011;1509;51.964;7.628;2023-05-01T05:19:07;10.00;;;4.03;;
2998;SDS011;1509;51.964;7.628;2023-05-01T05:21:33;8.50;;;4.33;;
2998;SDS011;1509;51.964;7.628;2023-05-01T05:23:59;7.80;;;3.90;;
2998;SDS011;1509;51.964;7.628;2023-05-01T05:26:25;6.97;;;4.37;;
2998;SDS011;1509;51.964;7.628;2023-05-01T05:28:51;7.33;;;4.20;;
2998;SDS011;1509;51.964;7.628;2023-05-01T05:31:19;5.97;;;4.17;;
2998;SDS011;1509;51.964;7.628;2023-05-01T05:33:45;5.87;;;3.77;;
2998;SDS011;1509;51.964;7.628;2023-05-01T05:36:11;12.90;;;4.60;;
2998;SDS011;1509;51.964;7.628;2023-05-01T05:38:36;7.23;;;4.23;;
2998;SDS011;1509;51.964;7.628;2023-05-01T05:41:02;8.43;;;4.00;;
2998;SDS011;1509;51.964;7.628;2023-05-01T05:43:28;7.07;;;4.30;;
2998;SDS011;1509;51.964;7.628;2023-05-01T05:45:57;8.80;;;5.30;;
2998;SDS011;1509;51.964;7.628;2023-05-01T05:48:23;6.60;;;4.10;;
2998;SDS011;1509;51.964;7.628;2023-05-01T05:50:49;8.30;;;5.20;;
2998;SDS011;1509;51.964;7.628;2023-05-01T05:53:16;10.43;;;4.50;;
2998;SDS011;1509;51.964;7.628;2023-05-01T05:55:45;8.00;;;3.83;;
2998;SDS011;1509;51.964;7.628;2023-05-01T05:58:12;7.30;;;4.20;;
2998;SDS011;1509;51.964;7.628;2023-05-01T06:00:46;9.50;;;4.30;;
2998;SDS011;1509;51.964;7.628;2023-05-01T06:03:13;6.00;;;3.90;;
2998;SDS011;1509;51.964;7.628;2023-05-01T06:05:40;5.50;;;4.00;;
2998;SDS011;1509;51.964;7.628;2023-05-01T06:08:07;7.60;;;4.30;;
2998;SDS011;1509;51.964;7.628;2023-05-01T06:10:38;6.00;;;4.07;;
2998;SDS011;1509;51.964;7.628;2023-05-01T06:13:05;5.07;;;3.53;;
2998;SDS011;1509;51.964;7.628;2023-05-01T06:15:36;12.67;;;4.30;;
2998;SDS011;1509;51.964;7.628;2023-05-01T06:18:02;7.30;;;4.50;;
2998;SDS011;1509;51.964;7.628;2023-05-01T06:20:28;7.40;;;4.63;;
2998;SDS011;1509;51.964;7.628;2023-05-01T06:22:54;8.63;;;4.63;;
2998;SDS011;1509;51.964;7.628;2023-05-01T06:25:20;6.90;;;4.33;;
2998;SDS011;1509;51.964;7.628;2023-05-01T06:27:48;8.80;;;6.57;;
2998;SDS011;1509;51.964;7.628;2023-05-01T06:30:14;5.50;;;4.20;;
2998;SDS011;1509;51.964;7.628;2023-05-01T06:32:40;8.90;;;5.07;;
2998;SDS011;1509;51.964;7.628;2023-05-01T06:35:07;14.90;;;4.70;;
2998;SDS011;1509;51.964;7.628;2023-05-01T06:37:33;6.50;;;4.30;;
2998;SDS011;1509;51.964;7.628;2023-05-01T06:40:00;8.80;;;4.73;;
2998;SDS011;1509;51.964;7.628;2023-05-01T06:42:25;5.60;;;4.10;;
2998;SDS011;1509;51.964;7.628;2023-05-01T06:44:54;6.23;;;4.27;;
2998;SDS011;1509;51.964;7.628;2023-05-01T06:47:19;7.77;;;5.43;;
2998;SDS011;1509;51.964;7.628;2023-05-01T06:49:46;6.70;;;3.90;;
2998;SDS011;1509;51.964;7.628;2023-05-01T06:52:11;8.83;;;4.33;;
2998;SDS011;1509;51.964;7.628;2023-05-01T06:54:37;6.03;;;4.30;;
2998;SDS011;1509;51.964;7.628;2023-05-01T06:57:03;6.10;;;4.40;;
2998;SDS011;1509;51.964;7.628;2023-05-01T06:59:28;6.17;;;4.10;;
2998;SDS011;1509;51.964;7.628;2023-05-01T07:01:54;6.00;;;3.97;;
2998;SDS011;1509;51.964;7.628;2023-05-01T07:04:19;9.67;;;4.67;;
2998;SDS011;1509;51.964;7.628;2023-05-01T07:06:45;5.63;;;4.50;;
2998;SDS011;1509;51.964;7.628;2023-05-01T07:09:11;7.63;;;3.97;;
2998;SDS011;1509;51.964;7.628;2023-05-01T07:11:37;5.50;;;4.40;;
2998;SDS011;1509;51.964;7.628;2023-05-01T07:14:03;6.07;;;3.90;;
2998;SDS011;1509;51.964;7.628;2023-05-01T07:16:29;7.70;;;4.30;;
2998;SDS011;1509;51.964;7.628;2023-05-01T07:18:54;6.63;;;3.90;;
2998;SDS011;1509;51.964;7.628;2023-05-01T07:21:21;6.43;;;4.13;;
2998;SDS011;1509;51.964;7.628;2023-05-01T07:23:46;5.80;;;3.73;;
2998;SDS011;1509;51.964;7.628;2023-05-01T07:26:12;6.00;;;4.40;;
2998;SDS011;1509;51.964;7.628;2023-05-01T07:28:37;8.40;;;4.13;;
2998;SDS011;1509;51.964;7.628;2023-05-01T07:31:03;8.63;;;5.13;;
2998;SDS011;1509;51.964;7.628;2023-05-01T07:33:29;8.27;;;4.63;;
2998;SDS011;1509;51.964;7.628;2023-05-01T07:35:55;10.77;;;4.80;;
2998;SDS011;1509;51.964;7.628;2023-05-01T07:38:21;7.60;;;4.47;;
2998;SDS011;1509;51.964;7.628;2023-05-01T07:40:46;6.60;;;4.20;;
2998;SDS011;1509;51.964;7.628;2023-05-01T07:43:12;6.50;;;4.50;;
2998;SDS011;1509;51.964;7.628;2023-05-01T07:45:38;6.90;;;4.77;;
2998;SDS011;1509;51.964;7.628;2023-05-01T07:48:05;6.57;;;3.90;;
2998;SDS011;1509;51.964;7.628;2023-05-01T07:50:31;5.93;;;4.30;;
2998;SDS011;1509;51.964;7.628;2023-05-01T07:52:57;6.87;;;3.90;;
2998;SDS011;1509;51.964;7.628;2023-05-01T07:55:24;7.67;;;4.13;;
2998;SDS011;1509;51.964;7.628;2023-05-01T07:57:49;7.17;;;4.43;;
2998;SDS011;1509;51.964;7.628;2023-05-01T08:00:16;7.90;;;4.40;;
2998;SDS011;1509;51.964;7.628;2023-05-01T08:02:42;6.23;;;4.47;;
2998;SDS011;1509;51.964;7.628;2023-05-01T08:05:07;5.80;;;3.90;;
2998;SDS011;1509;51.964;7.628;2023-05-01T08:07:34;5.53;;;4.03;;
2998;SDS011;1509;51.964;7.628;2023-05-01T08:10:00;6.50;;;4.43;;
2998;SDS011;1509;51.964;7.628;2023-05-01T08:12:27;6.70;;;3.20;;
2998;SDS011;1509;51.964;7.628;2023-05-01T08:14:53;5.27;;;3.87;;
2998;SDS011;1509;51.964;7.628;2023-05-01T08:17:18;6.63;;;4.20;;
2998;SDS011;1509;51.964;7.628;2023-05-01T08:19:44;6.43;;;3.80;;
2998;SDS011;1509;51.964;7.628;2023-05-01T08:22:10;7.47;;;3.90;;
2998;SDS011;1509;51.964;7.628;2023-05-01T08:24:37;4.87;;;4.07;;
2998;SDS011;1509;51.964;7.628;2023-05-01T08:27:03;7.67;;;3.87;;
2998;SDS011;1509;51.964;7.628;2023-05-01T08:29:29;10.10;;;5.20;;
2998;SDS011;1509;51.964;7.628;2023-05-01T08:31:55;8.70;;;4.17;;
2998;SDS011;1509;51.964;7.628;2023-05-01T08:34:22;4.90;;;3.67;;
2998;SDS011;1509;51.964;7.628;2023-05-01T08:36:48;8.40;;;4.17;;
2998;SDS011;1509;51.964;7.628;2023-05-01T08:39:13;5.40;;;3.63;;
2998;SDS011;1509;51.964;7.628;2023-05-01T08:41:39;6.83;;;3.67;;
2998;SDS011;1509;51.964;7.628;2023-05-01T08:44:08;5.40;;;3.73;;
2998;SDS011;1509;51.964;7.628;2023-05-01T08:49:15;4.93;;;3.67;;
2998;SDS011;1509;51.964;7.628;2023-05-01T08:51:43;6.27;;;3.50;;
2998;SDS011;1509;51.964;7.628;2023-05-01T08:54:14;9.53;;;4.27;;
2998;SDS011;1509;51.964;7.628;2023-05-01T08:56:41;4.83;;;3.57;;
2998;SDS011;1509;51.964;7.628;2023-05-01T08:59:08;4.80;;;3.70;;
2998;SDS011;1509;51.964;7.628;2023-05-01T09:01:36;5.43;;;4.27;;
2998;SDS011;1509;51.964;7.628;2023-05-01T09:04:02;6.20;;;3.80;;
2998;SDS011;1509;51.964;7.628;2023-05-01T09:06:30;5.43;;;3.77;;
2998;SDS011;1509;51.964;7.628;2023-05-01T09:08:57;6.33;;;3.73;;
2998;SDS011;1509;51.964;7.628;2023-05-01T09:11:23;7.30;;;4.40;;
2998;SDS011;1509;51.964;7.628;2023-05-01T09:13:50;6.57;;;3.63;;
2998;SDS011;1509;51.964;7.628;2023-05-01T09:16:19;9.53;;;3.80;;
2998;SDS011;1509;51.964;7.628;2023-05-01T09:18:45;6.43;;;3.90;;
2998;SDS011;1509;51.964;7.628;2023-05-01T09:21:12;6.80;;;3.50;;
2998;SDS011;1509;51.964;7.628;2023-05-01T09:23:37;6.73;;;3.43;;
2998;SDS011;1509;51.964;7.628;2023-05-01T09:26:05;5.73;;;3.50;;
2998;SDS011;1509;51.964;7.628;2023-05-01T09:28:43;8.53;;;4.00;;
2998;SDS011;1509;51.964;7.628;2023-05-01T09:31:19;5.50;;;3.70;;
2998;SDS011;1509;51.964;7.628;2023-05-01T09:33:53;6.33;;;3.50;;
2998;SDS011;1509;51.964;7.628;2023-05-01T09:36:21;5.80;;;3.40;;
2998;SDS011;1509;51.964;7.628;2023-05-01T09:38:55;4.70;;;3.37;;
2998;SDS011;1509;51.964;7.628;2023-05-01T09:41:22;5.20;;;3.23;;
2998;SDS011;1509;51.964;7.628;2023-05-01T09:43:51;5.30;;;4.03;;
2998;SDS011;1509;51.964;7.628;2023-05-01T09:46:18;6.53;;;3.27;;
2998;SDS011;1509;51.964;7.628;2023-05-01T09:48:51;4.33;;;3.30;;
2998;SDS011;1509;51.964;7.628;2023-05-01T09:54:00;4.60;;;3.20;;
2998;SDS011;1509;51.964;7.628;2023-05-01T09:56:29;3.80;;;2.67;;
2998;SDS011;1509;51.964;7.628;2023-05-01T09:58:56;4.10;;;3.00;;
2998;SDS011;1509;51.964;7.628;2023-05-01T10:04:04;3.67;;;2.73;;
2998;SDS011;1509;51.964;7.628;2023-05-01T10:06:30;4.43;;;2.67;;
2998;SDS011;1509;51.964;7.628;2023-05-01T10:08:56;3.00;;;2.63;;
2998;SDS011;1509;51.964;7.628;2023-05-01T10:11:22;4.03;;;2.90;;
2998;SDS011;1509;51.964;7.628;2023-05-01T10:16:34;3.10;;;2.80;;
2998;SDS011;1509;51.964;7.628;2023-05-01T10:19:01;4.00;;;2.87;;
2998;SDS011;1509;51.964;7.628;2023-05-01T10:21:27;3.50;;;2.40;;
2998;SDS011;1509;51.964;7.628;2023-05-01T10:23:54;4.33;;;3.07;;
2998;SDS011;1509;51.964;7.628;2023-05-01T10:26:20;6.03;;;2.20;;
2998;SDS011;1509;51.964;7.628;2023-05-01T10:28:46;4.60;;;2.90;;
2998;SDS011;1509;51.964;7.628;2023-05-01T10:31:14;4.20;;;3.47;;
2998;SDS011;1509;51.964;7.628;2023-05-01T10:33:41;3.10;;;2.60;;
2998;SDS011;1509;51.964;7.628;2023-05-01T10:36:17;3.20;;;2.70;;
2998;SDS011;1509;51.964;7.628;2023-05-01T10:38:46;5.23;;;2.90;;
2998;SDS011;1509;51.964;7.628;2023-05-01T10:41:13;4.27;;;3.13;;
2998;SDS011;1509;51.964;7.628;2023-05-01T10:43:40;3.60;;;3.30;;
2998;SDS011;1509;51.964;7.628;2023-05-01T10:53:34;4.20;;;3.10;;
2998;SDS011;1509;51.964;7.628;2023-05-01T10:56:00;3.90;;;3.37;;
2998;SDS011;1509;51.964;7.628;2023-05-01T11:03:56;4.53;;;3.10;;
2998;SDS011;1509;51.964;7.628;2023-05-01T11:06:28;5.10;;;3.10;;
2998;SDS011;1509;51.964;7.628;2023-05-01T11:08:54;4.43;;;2.77;;
2998;SDS011;1509;51.964;7.628;2023-05-01T11:14:02;6.37;;;2.37;;
2998;SDS011;1509;51.964;7.628;2023-05-01T11:19:08;3.90;;;2.93;;
2998;SDS011;1509;51.964;7.628;2023-05-01T11:21:35;6.53;;;2.60;;
2998;SDS011;1509;51.964;7.628;2023-05-01T11:24:03;3.20;;;2.90;;
2998;SDS011;1509;51.964;7.628;2023-05-01T11:26:29;3.50;;;2.43;;
2998;SDS011;1509;51.964;7.628;2023-05-01T11:28:56;5.23;;;2.40;;
2998;SDS011;1509;51.964;7.628;2023-05-01T11:31:24;3.50;;;2.93;;
2998;SDS011;1509;51.964;7.628;2023-05-01T11:33:50;3.47;;;2.10;;
2998;SDS011;1509;51.964;7.628;2023-05-01T11:36:17;2.60;;;1.97;;
2998;SDS011;1509;51.964;7.628;2023-05-01T11:38:52;3.13;;;2.03;;
2998;SDS011;1509;51.964;7.628;2023-05-01T11:41:23;3.13;;;2.60;;
2998;SDS011;1509;51.964;7.628;2023-05-01T11:43:50;6.20;;;2.50;;
2998;SDS011;1509;51.964;7.628;2023-05-01T11:48:49;3.57;;;2.30;;
2998;SDS011;1509;51.964;7.628;2023-05-01T11:51:15;4.27;;;2.17;;
2998;SDS011;1509;51.964;7.628;2023-05-01T11:53:40;2.97;;;1.90;;
2998;SDS011;1509;51.964;7.628;2023-05-01T11:56:21;4.03;;;2.40;;
2998;SDS011;1509;51.964;7.628;2023-05-01T11:58:48;3.43;;;2.23;;
2998;SDS011;1509;51.964;7.628;2023-05-01T12:01:14;2.73;;;1.90;;
2998;SDS011;1509;51.964;7.628;2023-05-01T12:03:41;2.30;;;2.10;;
2998;SDS011;1509;51.964;7.628;2023-05-01T12:06:11;2.80;;;2.10;;
2998;SDS011;1509;51.964;7.628;2023-05-01T12:08:41;2.67;;;1.60;;
2998;SDS011;1509;51.964;7.628;2023-05-01T12:11:09;2.77;;;1.80;;
2998;SDS011;1509;51.964;7.628;2023-05-01T12:13:35;2.57;;;1.97;;
2998;SDS011;1509;51.964;7.628;2023-05-01T12:16:03;2.70;;;1.77;;
2998;SDS011;1509;51.964;7.628;2023-05-01T12:18:29;2.50;;;1.40;;
2998;SDS011;1509;51.964;7.628;2023-05-01T12:20:55;2.93;;;1.53;;
2998;SDS011;1509;51.964;7.628;2023-05-01T12:23:31;2.43;;;1.70;;
2998;SDS011;1509;51.964;7.628;2023-05-01T12:25:59;2.57;;;1.93;;
2998;SDS011;1509;51.964;7.628;2023-05-01T12:28:26;2.53;;;1.60;;
2998;SDS011;1509;51.964;7.628;2023-05-01T12:30:53;2.70;;;1.83;;
2998;SDS011;1509;51.964;7.628;2023-05-01T12:33:26;2.87;;;1.33;;
2998;SDS011;1509;51.964;7.628;2023-05-01T12:35:52;2.13;;;1.50;;
2998;SDS011;1509;51.964;7.628;2023-05-01T12:38:21;2.53;;;1.70;;
2998;SDS011;1509;51.964;7.628;2023-05-01T12:40:51;3.83;;;1.83;;
2998;SDS011;1509;51.964;7.628;2023-05-01T12:43:21;4.80;;;2.50;;
2998;SDS011;1509;51.964;7.628;2023-05-01T12:45:58;2.20;;;1.70;;
2998;SDS011;1509;51.964;7.628;2023-05-01T12:48:27;2.30;;;1.60;;
2998;SDS011;1509;51.964;7.628;2023-05-01T12:50:54;2.23;;;1.53;;
2998;SDS011;1509;51.964;7.628;2023-05-01T12:53:20;2.63;;;1.60;;
2998;SDS011;1509;51.964;7.628;2023-05-01T12:55:48;4.27;;;1.87;;
2998;SDS011;1509;51.964;7.628;2023-05-01T12:58:15;2.67;;;2.40;;
2998;SDS011;1509;51.964;7.628;2023-05-01T13:00:50;3.20;;;1.70;;
2998;SDS011;1509;51.964;7.628;2023-05-01T13:03:21;3.40;;;1.63;;
2998;SDS011;1509;51.964;7.628;2023-05-01T13:05:49;4.67;;;2.40;;
2998;SDS011;1509;51.964;7.628;2023-05-01T13:10:56;3.70;;;2.37;;
2998;SDS011;1509;51.964;7.628;2023-05-01T13:13:23;2.67;;;1.90;;
2998;SDS011;1509;51.964;7.628;2023-05-01T13:15:50;2.43;;;1.50;;
2998;SDS011;1509;51.964;7.628;2023-05-01T13:18:16;3.93;;;2.00;;
2998;SDS011;1509;51.964;7.628;2023-05-01T13:20:42;2.10;;;1.70;;
2998;SDS011;1509;51.964;7.628;2023-05-01T13:23:10;4.33;;;1.80;;
2998;SDS011;1509;51.964;7.628;2023-05-01T13:25:39;2.53;;;2.00;;
2998;SDS011;1509;51.964;7.628;2023-05-01T13:28:05;3.23;;;2.10;;
2998;SDS011;1509;51.964;7.628;2023-05-01T13:30:32;3.80;;;2.10;;
2998;SDS011;1509;51.964;7.628;2023-05-01T13:32:58;3.30;;;2.10;;
2998;SDS011;1509;51.964;7.628;2023-05-01T13:35:27;3.40;;;2.27;;
2998;SDS011;1509;51.964;7.628;2023-05-01T13:37:52;2.67;;;2.20;;
2998;SDS011;1509;51.964;7.628;2023-05-01T13:40:18;3.17;;;2.00;;
2998;SDS011;1509;51.964;7.628;2023-05-01T13:42:50;2.50;;;2.07;;
2998;SDS011;1509;51.964;7.628;2023-05-01T13:45:17;2.97;;;2.13;;
2998;SDS011;1509;51.964;7.628;2023-05-01T13:47:44;3.23;;;2.27;;
2998;SDS011;1509;51.964;7.628;2023-05-01T13:50:13;6.00;;;2.13;;
2998;SDS011;1509;51.964;7.628;2023-05-01T13:52:42;2.80;;;2.17;;
2998;SDS011;1509;51.964;7.628;2023-05-01T13:55:09;2.87;;;1.83;;
2998;SDS011;1509;51.964;7.628;2023-05-01T13:57:36;4.13;;;2.40;;
2998;SDS011;1509;51.964;7.628;2023-05-01T14:00:03;2.80;;;2.30;;
2998;SDS011;1509;51.964;7.628;2023-05-01T14:02:32;3.03;;;2.10;;
2998;SDS011;1509;51.964;7.628;2023-05-01T14:04:58;5.13;;;2.13;;
2998;SDS011;1509;51.964;7.628;2023-05-01T14:07:24;4.10;;;2.20;;
2998;SDS011;1509;51.964;7.628;2023-05-01T14:09:54;6.93;;;2.60;;
2998;SDS011;1509;51.964;7.628;2023-05-01T14:12:30;3.83;;;2.87;;
2998;SDS011;1509;51.964;7.628;2023-05-01T14:14:57;3.30;;;2.90;;
2998;SDS011;1509;51.964;7.628;2023-05-01T14:17:30;3.87;;;2.50;;
2998;SDS011;1509;51.964;7.628;2023-05-01T14:19:57;5.70;;;2.70;;
2998;SDS011;1509;51.964;7.628;2023-05-01T14:22:24;4.63;;;2.47;;
2998;SDS011;1509;51.964;7.628;2023-05-01T14:24:53;4.43;;;2.40;;
2998;SDS011;1509;51.964;7.628;2023-05-01T14:27:19;3.87;;;2.60;;
2998;SDS011;1509;51.964;7.628;2023-05-01T14:29:46;3.20;;;2.50;;
2998;SDS011;1509;51.964;7.628;2023-05-01T14:32:13;3.90;;;2.17;;
2998;SDS011;1509;51.964;7.628;2023-05-01T14:34:40;3.03;;;2.47;;
2998;SDS011;1509;51.964;7.628;2023-05-01T14:37:10;3.27;;;2.60;;
2998;SDS011;1509;51.964;7.628;2023-05-01T14:39:38;3.20;;;2.50;;
2998;SDS011;1509;51.964;7.628;2023-05-01T14:42:04;5.47;;;3.10;;
2998;SDS011;1509;51.964;7.628;2023-05-01T14:44:30;4.30;;;2.53;;
2998;SDS011;1509;51.964;7.628;2023-05-01T14:46:56;5.07;;;2.73;;
2998;SDS011;1509;51.964;7.628;2023-05-01T14:49:23;3.13;;;2.40;;
2998;SDS011;1509;51.964;7.628;2023-05-01T14:51:50;3.70;;;2.10;;
2998;SDS011;1509;51.964;7.628;2023-05-01T14:54:16;4.00;;;2.47;;
2998;SDS011;1509;51.964;7.628;2023-05-01T14:56:42;3.90;;;2.67;;
2998;SDS011;1509;51.964;7.628;2023-05-01T14:59:09;5.47;;;2.80;;
2998;SDS011;1509;51.964;7.628;2023-05-01T15:01:35;4.10;;;2.90;;
2998;SDS011;1509;51.964;7.628;2023-05-01T15:04:00;5.10;;;2.90;;
2998;SDS011;1509;51.964;7.628;2023-05-01T15:06:26;3.80;;;2.60;;
2998;SDS011;1509;51.964;7.628;2023-05-01T15:08:52;4.10;;;2.77;;
2998;SDS011;1509;51.964;7.628;2023-05-01T15:11:18;2.63;;;2.43;;
2998;SDS011;1509;51.964;7.628;2023-05-01T15:13:45;4.10;;;3.40;;
2998;SDS011;1509;51.964;7.628;2023-05-01T15:16:12;3.00;;;2.43;;
2998;SDS011;1509;51.964;7.628;2023-05-01T15:18:38;2.97;;;1.90;;
2998;SDS011;1509;51.964;7.628;2023-05-01T15:21:04;6.17;;;2.00;;
2998;SDS011;1509;51.964;7.628;2023-05-01T15:23:30;2.87;;;1.87;;
2998;SDS011;1509;51.964;7.628;2023-05-01T15:25:56;2.87;;;2.30;;
2998;SDS011;1509;51.964;7.628;2023-05-01T15:28:22;3.30;;;1.77;;
2998;SDS011;1509;51.964;7.628;2023-05-01T15:30:50;1.97;;;1.73;;
2998;SDS011;1509;51.964;7.628;2023-05-01T15:33:16;2.30;;;1.90;;
2998;SDS011;1509;51.964;7.628;2023-05-01T15:35:42;2.43;;;1.77;;
2998;SDS011;1509;51.964;7.628;2023-05-01T15:38:09;3.40;;;1.80;;
2998;SDS011;1509;51.964;7.628;2023-05-01T15:40:36;3.70;;;2.17;;
2998;SDS011;1509;51.964;7.628;2023-05-01T15:43:02;2.53;;;1.93;;
2998;SDS011;1509;51.964;7.628;2023-05-01T15:45:32;2.90;;;1.80;;
2998;SDS011;1509;51.964;7.628;2023-05-01T15:47:57;2.40;;;1.60;;
2998;SDS011;1509;51.964;7.628;2023-05-01T15:50:23;2.90;;;1.83;;
2998;SDS011;1509;51.964;7.628;2023-05-01T15:52:50;1.80;;;1.37;;
2998;SDS011;1509;51.964;7.628;2023-05-01T15:55:16;2.23;;;1.60;;
2998;SDS011;1509;51.964;7.628;2023-05-01T15:57:45;3.10;;;2.10;;
2998;SDS011;1509;51.964;7.628;2023-05-01T16:00:12;2.70;;;2.07;;
2998;SDS011;1509;51.964;7.628;2023-05-01T16:02:39;2.40;;;2.03;;
2998;SDS011;1509;51.964;7.628;2023-05-01T16:05:08;3.20;;;2.43;;